Time;durP1;ratioP1;P1;durP2;ratioP2;P2;SDS_P1;SDS_P2;PMS_P1;PMS_P2;Temp;Humidity;BMP_temperature;BMP_pressure;BME280_temperature;BME280_humidity;BME280_pressure;Samples;Min_cycle;Max_cycle;Signal;HPM_P1;HPM_P2
2023/10/16 00:01:09;;;;;;;7.97;2.03;;;6.90;99.90;;;;;;5095799;28;20447;-71
2023/10/16 00:03:41;;;;;;;6.87;1.90;;;6.90;99.90;;;;;;5094125;28;20536;-71
2023/10/16 00:06:11;;;;;;;6.90;2.00;;;6.90;99.90;;;;;;5095915;28;20470;-71
2023/10/16 00:08:48;;;;;;;3.57;1.63;;;6.90;99.90;;;;;;5094930;28;20959;-70
2023/10/16 00:11:18;;;;;;;5.80;2.10;;;6.90;99.90;;;;;;5096081;28;20426;-71
2023/10/16 00:13:49;;;;;;;5.30;1.40;;;6.90;99.90;;;;;;5096425;28;20969;-71
2023/10/16 00:16:21;;;;;;;5.90;1.93;;;6.90;99.90;;;;;;5095679;28;20461;-71
2023/10/16 00:18:53;;;;;;;4.83;1.60;;;6.90;99.90;;;;;;5094638;28;20442;-71
2023/10/16 00:21:24;;;;;;;6.07;1.70;;;6.90;99.90;;;;;;5095730;28;20509;-71
2023/10/16 00:23:55;;;;;;;6.20;1.97;;;6.90;99.90;;;;;;5096613;28;20453;-70
2023/10/16 00:26:24;;;;;;;6.63;2.70;;;6.90;99.90;;;;;;5094277;28;20460;-71
2023/10/16 00:29:16;;;;;;;5.40;2.27;;;6.90;99.90;;;;;;5095548;28;20436;-71
2023/10/16 00:31:51;;;;;;;3.20;1.70;;;6.90;99.90;;;;;;5096393;28;20419;-70
2023/10/16 00:34:20;;;;;;;5.27;1.73;;;6.90;99.90;;;;;;5094110;28;20466;-70
2023/10/16 00:36:50;;;;;;;3.87;2.20;;;6.90;99.90;;;;;;5094150;28;20464;-70
2023/10/16 00:39:28;;;;;;;4.70;1.67;;;6.90;99.90;;;;;;5094128;28;20438;-71
2023/10/16 00:41:58;;;;;;;3.93;1.70;;;6.90;99.90;;;;;;5094128;28;20429;-71
2023/10/16 00:44:33;;;;;;;5.17;1.73;;;6.90;99.90;;;;;;5095228;28;20438;-70
2023/10/16 00:47:03;;;;;;;4.80;1.67;;;6.90;99.90;;;;;;5095489;28;20860;-70
2023/10/16 00:49:34;;;;;;;4.70;1.47;;;6.90;99.90;;;;;;5095281;28;20423;-70
2023/10/16 00:52:04;;;;;;;6.07;1.87;;;6.90;99.90;;;;;;5095178;28;20455;-70
2023/10/16 00:54:39;;;;;;;6.17;2.60;;;6.90;99.90;;;;;;5093779;28;20493;-71
2023/10/16 00:57:10;;;;;;;6.30;2.30;;;6.90;99.90;;;;;;5095542;28;20454;-70
2023/10/16 00:59:41;;;;;;;2.87;1.50;;;6.90;99.90;;;;;;5093831;28;20954;-71
2023/10/16 01:02:14;;;;;;;3.23;1.40;;;6.90;99.90;;;;;;5093651;28;20450;-71
2023/10/16 01:04:43;;;;;;;4.87;2.27;;;6.90;99.90;;;;;;5093728;28;20502;-70
2023/10/16 01:07:14;;;;;;;4.07;1.63;;;7.00;99.90;;;;;;5095042;28;20464;-70
2023/10/16 01:09:46;;;;;;;2.90;1.53;;;6.90;99.90;;;;;;5093763;28;20792;-71
2023/10/16 01:12:17;;;;;;;5.60;2.13;;;7.00;99.90;;;;;;5095358;28;20422;-70
2023/10/16 01:14:45;;;;;;;4.73;1.60;;;7.00;99.90;;;;;;5093726;28;20517;-70
2023/10/16 01:17:14;;;;;;;4.57;1.83;;;7.00;99.90;;;;;;5094889;28;20457;-70
2023/10/16 01:19:43;;;;;;;3.87;2.27;;;7.00;99.90;;;;;;5095115;28;20438;-71
2023/10/16 01:22:13;;;;;;;7.20;1.97;;;7.00;99.90;;;;;;5093777;28;20526;-71
2023/10/16 01:24:48;;;;;;;9.10;2.20;;;7.10;99.90;;;;;;5093388;28;20481;-71
2023/10/16 01:27:27;;;;;;;4.37;1.77;;;7.10;99.90;;;;;;5094991;28;20461;-70
2023/10/16 01:29:59;;;;;;;7.10;2.07;;;7.10;99.90;;;;;;5093562;28;20906;-70
2023/10/16 01:32:29;;;;;;;5.20;1.93;;;7.10;99.90;;;;;;5094722;28;20409;-71
2023/10/16 01:34:59;;;;;;;2.17;1.57;;;7.10;99.90;;;;;;5093122;28;20510;-71
2023/10/16 01:37:27;;;;;;;4.70;2.00;;;7.20;99.90;;;;;;5093212;28;20466;-70
2023/10/16 01:40:15;;;;;;;7.03;1.93;;;7.20;99.90;;;;;;5094935;28;20424;-70
2023/10/16 01:42:43;;;;;;;5.13;1.70;;;7.20;99.90;;;;;;5095127;28;20461;-70
2023/10/16 01:45:13;;;;;;;3.83;1.70;;;7.30;99.90;;;;;;5095180;28;20999;-70
2023/10/16 01:47:42;;;;;;;5.30;1.70;;;7.30;99.90;;;;;;5094083;28;20471;-70
2023/10/16 01:50:20;;;;;;;4.53;2.17;;;7.40;99.90;;;;;;5092890;28;20459;-70
2023/10/16 01:52:49;;;;;;;5.57;2.00;;;7.40;99.90;;;;;;5092741;28;20438;-71
2023/10/16 01:55:21;;;;;;;5.03;1.60;;;7.40;99.90;;;;;;5092880;28;20544;-71
2023/10/16 01:57:50;;;;;;;4.00;1.30;;;7.40;99.90;;;;;;5092532;28;20478;-71
2023/10/16 02:00:24;;;;;;;2.67;1.80;;;7.40;99.90;;;;;;5093134;28;20482;-72
2023/10/16 02:02:54;;;;;;;3.00;1.67;;;7.50;99.90;;;;;;5093948;28;20540;-71
2023/10/16 02:05:23;;;;;;;3.73;1.93;;;7.50;99.90;;;;;;5092702;28;20442;-71
2023/10/16 02:07:55;;;;;;;5.27;1.80;;;7.50;99.90;;;;;;5092471;28;20888;-71
2023/10/16 02:10:25;;;;;;;3.80;1.60;;;7.50;99.90;;;;;;5089150;22;20495;-71
2023/10/16 02:12:53;;;;;;;3.33;1.30;;;7.50;99.90;;;;;;5032158;28;20439;-71
2023/10/16 02:15:22;;;;;;;4.27;2.20;;;7.50;99.90;;;;;;5032093;28;21025;-71
2023/10/16 02:17:51;;;;;;;3.33;1.90;;;7.60;99.90;;;;;;5031885;28;20468;-71
2023/10/16 02:20:22;;;;;;;3.80;1.90;;;7.60;99.90;;;;;;5032132;28;20449;-71
2023/10/16 02:22:50;;;;;;;6.10;2.47;;;7.60;99.90;;;;;;5033433;28;20808;-71
2023/10/16 02:25:18;;;;;;;4.53;2.10;;;7.60;99.90;;;;;;5032013;28;20446;-71
2023/10/16 02:27:50;;;;;;;4.90;1.80;;;7.60;99.90;;;;;;5032634;28;20524;-71
2023/10/16 02:30:30;;;;;;;4.10;1.80;;;7.60;99.90;;;;;;5032042;28;20446;-71
2023/10/16 02:33:11;;;;;;;3.53;1.83;;;7.60;99.90;;;;;;5031967;28;20449;-71
2023/10/16 02:35:42;;;;;;;6.03;1.87;;;7.60;99.90;;;;;;5031870;28;20560;-71
2023/10/16 02:38:14;;;;;;;4.10;2.00;;;7.60;99.90;;;;;;5032130;28;20801;-71
2023/10/16 02:40:44;;;;;;;4.10;2.60;;;7.60;99.90;;;;;;5033430;28;20526;-71
2023/10/16 02:43:18;;;;;;;4.23;1.80;;;7.60;99.90;;;;;;5033391;28;20427;-71
2023/10/16 02:45:51;;;;;;;3.70;1.77;;;7.60;99.90;;;;;;5031805;28;20476;-71
2023/10/16 02:48:21;;;;;;;3.13;1.87;;;7.60;99.90;;;;;;5031866;28;20799;-71
2023/10/16 02:50:56;;;;;;;2.93;2.00;;;7.60;99.90;;;;;;5032055;28;20450;-71
2023/10/16 02:53:26;;;;;;;3.33;1.63;;;7.60;99.90;;;;;;5032031;28;20446;-71
2023/10/16 02:56:05;;;;;;;4.57;1.80;;;7.60;99.90;;;;;;5031700;28;20823;-71
2023/10/16 02:58:41;;;;;;;2.97;1.60;;;7.60;99.90;;;;;;5031714;28;20542;-71
2023/10/16 03:01:14;;;;;;;5.77;2.53;;;7.60;99.90;;;;;;5031812;28;20530;-71
2023/10/16 03:03:44;;;;;;;4.43;1.47;;;7.60;99.90;;;;;;5031752;28;20438;-71
2023/10/16 03:06:12;;;;;;;3.70;1.97;;;7.60;99.90;;;;;;5031494;28;20463;-71
2023/10/16 03:08:48;;;;;;;3.97;2.23;;;7.60;99.90;;;;;;5031500;28;20438;-71
2023/10/16 03:11:17;;;;;;;4.37;2.03;;;7.60;99.90;;;;;;5032933;28;20455;-71
2023/10/16 03:13:47;;;;;;;3.60;1.60;;;7.60;99.90;;;;;;5032812;28;20434;-71
2023/10/16 03:16:22;;;;;;;5.53;2.47;;;7.60;99.90;;;;;;5031708;28;20492;-71
2023/10/16 03:18:51;;;;;;;3.57;1.70;;;7.70;99.90;;;;;;5031542;28;20434;-71
2023/10/16 03:21:31;;;;;;;3.93;1.77;;;7.60;99.90;;;;;;5031561;28;20533;-71
2023/10/16 03:23:59;;;;;;;4.60;1.77;;;7.70;99.90;;;;;;5031615;28;20448;-71
2023/10/16 03:26:28;;;;;;;7.90;2.30;;;7.70;99.90;;;;;;5031611;28;20465;-71
2023/10/16 03:29:03;;;;;;;3.67;1.90;;;7.70;99.90;;;;;;5031651;28;20447;-71
2023/10/16 03:31:36;;;;;;;3.17;1.97;;;7.70;99.90;;;;;;5032946;28;20483;-71
2023/10/16 03:34:05;;;;;;;5.27;1.80;;;7.70;99.90;;;;;;5031367;28;20439;-71
2023/10/16 03:36:34;;;;;;;5.30;2.30;;;7.70;99.90;;;;;;5032449;28;20474;-71
2023/10/16 03:39:03;;;;;;;5.33;2.20;;;7.70;99.90;;;;;;5033862;28;20526;-71
2023/10/16 03:41:32;;;;;;;5.90;2.10;;;7.70;99.90;;;;;;5036131;28;20786;-71
2023/10/16 03:44:13;;;;;;;9.67;2.23;;;7.70;99.90;;;;;;5036311;28;20509;-71
2023/10/16 03:46:42;;;;;;;5.17;2.00;;;7.70;99.90;;;;;;5036248;28;20462;-71
2023/10/16 03:49:12;;;;;;;5.70;1.83;;;7.70;99.90;;;;;;5036059;28;20431;-71
2023/10/16 03:51:40;;;;;;;4.50;2.00;;;7.70;99.90;;;;;;5035976;28;20446;-71
2023/10/16 03:54:12;;;;;;;3.80;1.73;;;7.70;99.90;;;;;;5035923;28;20437;-71
2023/10/16 03:56:40;;;;;;;3.70;1.70;;;7.70;99.90;;;;;;5036273;28;20478;-71
2023/10/16 03:59:11;;;;;;;3.47;2.13;;;7.70;99.90;;;;;;5035864;28;20464;-71
2023/10/16 04:01:39;;;;;;;4.43;1.87;;;7.70;99.90;;;;;;5036060;28;20462;-71
2023/10/16 04:04:12;;;;;;;3.73;2.47;;;7.80;99.90;;;;;;5034493;28;20478;-71
2023/10/16 04:06:41;;;;;;;4.60;1.87;;;7.80;99.90;;;;;;5034389;28;20874;-72
2023/10/16 04:09:10;;;;;;;2.77;1.93;;;7.80;99.90;;;;;;5035615;28;20435;-71
2023/10/16 04:11:38;;;;;;;3.37;2.00;;;7.80;99.90;;;;;;5034473;28;20458;-71
2023/10/16 04:14:11;;;;;;;5.33;2.63;;;7.80;99.90;;;;;;5035793;28;20934;-71
2023/10/16 04:16:42;;;;;;;4.50;2.23;;;7.80;99.90;;;;;;5035676;28;20565;-71
2023/10/16 04:19:36;;;;;;;5.50;2.43;;;7.80;99.90;;;;;;5035434;28;20422;-71
2023/10/16 04:22:08;;;;;;;3.47;1.93;;;7.80;99.90;;;;;;5035558;28;20435;-71
2023/10/16 04:24:44;;;;;;;6.23;2.47;;;7.80;99.90;;;;;;5035915;28;20416;-71
2023/10/16 04:27:29;;;;;;;4.30;2.20;;;7.80;99.90;;;;;;5035422;28;21002;-71
2023/10/16 04:32:56;;;;;;;3.77;2.10;;;7.90;99.90;;;;;;5033907;28;20474;-71
2023/10/16 04:35:51;;;;;;;5.40;2.20;;;7.90;99.90;;;;;;5035465;28;20427;-71
2023/10/16 04:38:52;;;;;;;3.33;2.00;;;7.90;99.90;;;;;;5035052;28;20471;-71
2023/10/16 04:44:49;;;;;;;3.70;1.80;;;7.90;99.90;;;;;;5033339;28;20450;-71
2023/10/16 04:47:17;;;;;;;4.20;2.40;;;7.90;99.90;;;;;;5033707;28;20505;-71
2023/10/16 04:49:59;;;;;;;4.87;2.10;;;7.90;99.90;;;;;;5034985;28;20431;-71
2023/10/16 04:53:06;;;;;;;4.60;2.13;;;7.90;99.90;;;;;;5035389;28;20450;-71
2023/10/16 04:58:38;;;;;;;5.93;2.10;;;7.90;99.90;;;;;;5035153;28;20490;-71
2023/10/16 05:07:06;;;;;;;2.80;2.17;;;8.00;99.90;;;;;;5032791;28;20470;-71
2023/10/16 05:15:37;;;;;;;4.50;2.20;;;7.90;99.90;;;;;;5034531;28;20419;-71
2023/10/16 05:18:11;;;;;;;3.00;2.07;;;7.90;99.90;;;;;;5033084;28;20470;-71
2023/10/16 06:16:18;;;;;;;5.13;2.93;;;8.10;99.90;;;;;;5033643;28;20493;-70
2023/10/16 06:18:47;;;;;;;4.10;2.73;;;8.00;99.90;;;;;;5032131;28;20565;-70
2023/10/16 06:21:15;;;;;;;3.60;2.60;;;8.10;99.90;;;;;;5033390;28;20438;-70
2023/10/16 06:23:48;;;;;;;5.20;2.97;;;8.10;99.90;;;;;;5033954;28;20484;-70
2023/10/16 06:26:16;;;;;;;4.20;3.10;;;8.10;99.90;;;;;;5033780;28;20455;-70
2023/10/16 06:28:49;;;;;;;3.47;2.30;;;8.10;99.90;;;;;;5033247;28;20442;-70
2023/10/16 06:31:22;;;;;;;3.77;2.77;;;8.10;99.90;;;;;;5033310;28;20429;-70
2023/10/16 06:33:54;;;;;;;3.30;2.60;;;8.10;99.90;;;;;;5033589;28;20423;-70
2023/10/16 06:36:24;;;;;;;4.50;2.97;;;8.10;99.90;;;;;;5033277;28;20971;-70
2023/10/16 06:38:52;;;;;;;5.57;3.37;;;8.10;99.90;;;;;;5033634;28;20501;-70
2023/10/16 06:41:21;;;;;;;3.00;2.60;;;8.10;99.90;;;;;;5033147;28;20437;-70
2023/10/16 06:43:50;;;;;;;3.70;2.60;;;8.10;99.90;;;;;;5033241;28;20435;-70
2023/10/16 06:46:24;;;;;;;6.20;3.10;;;8.10;99.90;;;;;;5033193;28;20581;-71
2023/10/16 06:48:54;;;;;;;7.67;3.30;;;8.10;99.90;;;;;;5031877;28;20940;-70
2023/10/16 06:51:26;;;;;;;5.33;3.10;;;8.20;99.90;;;;;;5033519;28;20502;-70
2023/10/16 06:53:57;;;;;;;3.10;2.63;;;8.20;99.90;;;;;;5033567;28;20431;-70
2023/10/16 06:56:32;;;;;;;3.80;3.27;;;8.20;99.90;;;;;;5033035;28;20528;-70
2023/10/16 06:59:01;;;;;;;4.63;3.10;;;8.20;99.90;;;;;;5031750;28;20467;-70
2023/10/16 07:01:29;;;;;;;4.17;3.57;;;8.20;99.90;;;;;;5033232;28;20444;-70
2023/10/16 07:03:58;;;;;;;4.60;3.30;;;8.20;99.90;;;;;;5031679;28;20451;-70
2023/10/16 07:06:32;;;;;;;7.67;3.97;;;8.30;99.90;;;;;;5033398;28;20822;-71
2023/10/16 07:09:02;;;;;;;4.10;3.30;;;8.30;99.90;;;;;;5033834;28;20869;-71
2023/10/16 07:11:31;;;;;;;5.73;3.40;;;8.30;99.90;;;;;;5032910;28;20446;-71
2023/10/16 07:14:01;;;;;;;5.30;3.70;;;8.30;99.90;;;;;;5035016;28;20470;-70
2023/10/16 07:16:29;;;;;;;5.90;3.20;;;8.30;99.90;;;;;;5036712;28;20458;-71
2023/10/16 07:18:58;;;;;;;5.03;3.40;;;8.40;99.90;;;;;;5037112;28;20525;-71
2023/10/16 07:21:26;;;;;;;4.00;3.03;;;8.40;99.90;;;;;;5036603;28;20531;-70
2023/10/16 07:23:54;;;;;;;5.47;3.50;;;8.40;99.90;;;;;;5036571;28;21002;-70
2023/10/16 07:26:24;;;;;;;5.17;3.80;;;8.50;99.90;;;;;;5036577;28;20477;-70
2023/10/16 07:28:52;;;;;;;4.07;3.30;;;8.50;99.90;;;;;;5036693;28;20847;-71
2023/10/16 07:31:22;;;;;;;3.90;2.83;;;8.50;99.90;;;;;;5036514;28;20461;-70
2023/10/16 07:33:54;;;;;;;5.60;2.87;;;8.60;99.90;;;;;;5036621;28;20443;-70
2023/10/16 07:36:23;;;;;;;4.33;2.50;;;8.60;99.90;;;;;;5035092;28;20463;-70
2023/10/16 07:38:52;;;;;;;4.83;2.70;;;8.60;99.90;;;;;;5036169;28;20569;-70
2023/10/16 07:41:23;;;;;;;2.93;2.63;;;8.70;99.90;;;;;;5036532;28;20438;-70
2023/10/16 07:43:56;;;;;;;4.30;2.63;;;8.70;99.90;;;;;;5036729;28;20851;-71
2023/10/16 07:46:31;;;;;;;3.87;2.67;;;8.70;99.90;;;;;;5034939;28;20467;-70
2023/10/16 07:49:09;;;;;;;4.37;2.93;;;8.80;99.90;;;;;;5036271;28;20419;-71
2023/10/16 07:51:44;;;;;;;4.30;2.90;;;8.80;99.90;;;;;;5034857;28;20435;-71
2023/10/16 07:54:12;;;;;;;4.53;3.00;;;8.80;99.90;;;;;;5036412;28;20892;-70
2023/10/16 07:56:41;;;;;;;3.93;2.93;;;8.80;99.90;;;;;;5035973;28;20455;-70
2023/10/16 07:59:09;;;;;;;3.30;2.40;;;8.80;99.90;;;;;;5036119;28;20871;-70
2023/10/16 08:01:48;;;;;;;3.20;2.87;;;8.80;99.90;;;;;;5036218;28;20427;-71
2023/10/16 08:04:27;;;;;;;5.80;3.30;;;8.90;99.90;;;;;;5036177;28;20423;-71
2023/10/16 08:07:04;;;;;;;4.10;2.80;;;8.90;99.90;;;;;;5035713;28;20534;-71
2023/10/16 08:12:34;;;;;;;3.90;3.50;;;8.90;99.90;;;;;;5009713;28;20439;-71
2023/10/16 08:15:14;;;;;;;5.30;3.20;;;8.90;99.90;;;;;;5034890;28;20845;-71
2023/10/16 08:17:47;;;;;;;4.50;3.30;;;9.00;99.90;;;;;;5035438;28;20868;-71
2023/10/16 08:20:18;;;;;;;4.10;3.00;;;9.00;99.90;;;;;;5036314;28;20477;-71
2023/10/16 08:22:47;;;;;;;4.40;3.43;;;9.00;99.90;;;;;;5034162;28;20501;-71
2023/10/16 08:25:31;;;;;;;4.63;3.10;;;9.00;99.90;;;;;;5033333;28;20447;-71
2023/10/16 08:28:01;;;;;;;5.13;3.00;;;9.10;99.90;;;;;;5035541;28;20459;-71
2023/10/16 08:30:44;;;;;;;5.10;3.13;;;9.10;99.90;;;;;;5034070;28;20455;-71
2023/10/16 08:33:16;;;;;;;4.67;3.50;;;9.10;99.90;;;;;;5033967;28;20485;-71
2023/10/16 08:35:45;;;;;;;4.30;3.20;;;9.10;99.90;;;;;;5035278;28;20419;-71
2023/10/16 08:38:15;;;;;;;4.80;3.67;;;9.20;99.90;;;;;;5035643;28;20431;-71
2023/10/16 08:40:44;;;;;;;7.40;3.80;;;9.20;99.90;;;;;;5033859;28;20512;-71
2023/10/16 08:43:17;;;;;;;5.00;3.40;;;9.20;99.90;;;;;;5033644;28;21006;-71
2023/10/16 08:45:49;;;;;;;4.30;3.20;;;9.30;99.90;;;;;;5035193;28;20450;-71
2023/10/16 08:48:19;;;;;;;5.67;3.30;;;9.30;99.90;;;;;;5034794;28;20423;-71
2023/10/16 08:50:57;;;;;;;4.07;3.40;;;9.40;99.90;;;;;;5035039;28;20419;-71
2023/10/16 08:53:32;;;;;;;7.00;3.60;;;9.40;99.90;;;;;;5033588;28;20453;-71
2023/10/16 08:56:07;;;;;;;4.20;3.40;;;9.50;99.90;;;;;;5033514;28;20458;-71
2023/10/16 08:58:40;;;;;;;5.20;3.93;;;9.50;99.90;;;;;;5034584;28;20834;-71
2023/10/16 09:01:09;;;;;;;4.13;3.73;;;9.50;99.90;;;;;;5033420;28;20442;-71
2023/10/16 09:03:46;;;;;;;7.90;4.40;;;9.60;99.90;;;;;;5033724;28;20865;-71
2023/10/16 09:06:21;;;;;;;5.77;3.13;;;9.60;99.90;;;;;;5034580;28;20486;-71
2023/10/16 09:08:49;;;;;;;3.43;3.13;;;9.70;99.90;;;;;;5034601;28;20419;-71
2023/10/16 09:11:19;;;;;;;5.03;3.40;;;9.70;99.90;;;;;;5034519;28;20481;-71
2023/10/16 09:13:51;;;;;;;5.47;3.83;;;9.80;99.90;;;;;;5034481;28;20446;-71
2023/10/16 09:16:23;;;;;;;4.23;3.50;;;9.80;99.90;;;;;;5033359;28;20466;-71
2023/10/16 09:18:54;;;;;;;5.30;4.30;;;9.90;99.90;;;;;;5034842;28;20463;-71
2023/10/16 09:21:27;;;;;;;3.67;3.10;;;10.00;99.90;;;;;;5035253;28;20450;-70
2023/10/16 09:23:58;;;;;;;4.10;3.00;;;10.00;99.90;;;;;;5034372;28;20434;-71
2023/10/16 09:26:32;;;;;;;3.23;2.93;;;10.10;99.90;;;;;;5033168;28;20462;-70
2023/10/16 09:29:05;;;;;;;7.03;3.50;;;10.10;99.90;;;;;;5034921;28;20909;-71
2023/10/16 09:31:33;;;;;;;4.77;3.50;;;10.10;99.90;;;;;;5033213;28;20442;-71
2023/10/16 09:34:03;;;;;;;4.27;3.37;;;10.20;99.90;;;;;;5034276;28;20505;-71
2023/10/16 09:36:36;;;;;;;6.20;3.50;;;10.20;99.90;;;;;;5033403;28;20528;-71
2023/10/16 09:39:17;;;;;;;4.67;2.63;;;10.20;99.90;;;;;;5034164;28;20459;-71
2023/10/16 09:41:49;;;;;;;4.20;3.40;;;10.30;99.90;;;;;;5034352;28;20419;-71
2023/10/16 09:44:36;;;;;;;2.67;2.33;;;10.30;99.90;;;;;;5032704;28;20930;-71
2023/10/16 09:49:49;;;;;;;2.77;2.27;;;10.40;99.90;;;;;;5032304;28;20952;-71
2023/10/16 09:52:20;;;;;;;5.17;2.30;;;10.40;99.90;;;;;;5033756;28;20423;-71
2023/10/16 09:54:49;;;;;;;3.10;1.47;;;10.50;99.90;;;;;;5033718;28;20426;-71
2023/10/16 09:57:22;;;;;;;3.40;2.00;;;10.50;99.90;;;;;;5033707;28;20551;-71
2023/10/16 10:00:00;;;;;;;2.43;1.60;;;10.60;99.90;;;;;;5034058;28;20483;-71
2023/10/16 10:02:40;;;;;;;3.60;2.20;;;10.70;99.90;;;;;;5033630;28;20412;-71
2023/10/16 10:05:10;;;;;;;4.40;1.73;;;10.70;99.90;;;;;;5033609;28;20439;-71
2023/10/16 10:07:49;;;;;;;4.10;1.63;;;10.80;99.90;;;;;;5033389;28;20991;-71
2023/10/16 10:13:09;;;;;;;3.57;2.17;;;10.90;99.90;;;;;;5033529;28;20856;-71
2023/10/16 10:15:44;;;;;;;3.30;1.73;;;11.10;99.90;;;;;;5033905;28;20415;-71
2023/10/16 10:18:35;;;;;;;2.67;1.67;;;11.10;99.90;;;;;;5033410;28;20419;-71
2023/10/16 10:21:18;;;;;;;4.10;1.90;;;11.20;99.90;;;;;;5033550;28;20517;-71
2023/10/16 10:23:48;;;;;;;5.10;2.37;;;11.10;99.90;;;;;;5033613;28;20527;-71
2023/10/16 10:26:20;;;;;;;3.43;1.77;;;11.10;99.90;;;;;;5033401;28;20463;-71
2023/10/16 10:29:09;;;;;;;3.97;1.73;;;11.10;99.90;;;;;;5033430;28;20931;-71
2023/10/16 10:31:38;;;;;;;3.87;2.30;;;11.10;99.90;;;;;;5033615;28;20423;-71
2023/10/16 10:34:27;;;;;;;5.00;2.33;;;11.10;99.90;;;;;;5033152;28;20466;-71
2023/10/16 10:36:59;;;;;;;4.30;2.50;;;11.10;99.90;;;;;;5033254;28;20870;-71
2023/10/16 10:39:43;;;;;;;4.17;2.07;;;11.10;99.90;;;;;;5032901;28;20465;-71
2023/10/16 10:42:23;;;;;;;4.80;2.53;;;11.10;99.90;;;;;;5033090;28;20794;-71
2023/10/16 10:47:45;;;;;;;4.13;2.47;;;11.10;99.90;;;;;;5031854;28;20463;-71
2023/10/16 10:50:14;;;;;;;5.67;2.37;;;11.10;99.90;;;;;;5037145;28;20489;-71
2023/10/16 10:52:46;;;;;;;3.73;1.70;;;11.00;99.90;;;;;;5037088;28;20488;-71
2023/10/16 10:55:21;;;;;;;3.57;2.13;;;11.10;99.90;;;;;;5036876;28;20440;-71
2023/10/16 10:57:58;;;;;;;4.73;1.97;;;11.10;99.90;;;;;;5037081;28;20541;-71
2023/10/16 11:00:46;;;;;;;3.70;2.27;;;11.10;99.90;;;;;;5037076;28;20450;-71
2023/10/16 11:03:33;;;;;;;4.50;2.50;;;11.10;99.90;;;;;;5037472;28;20834;-71
2023/10/16 11:06:02;;;;;;;3.80;1.87;;;11.10;99.90;;;;;;5037224;28;20482;-71
2023/10/16 11:08:35;;;;;;;3.90;2.00;;;11.10;99.90;;;;;;5036982;28;20433;-71
2023/10/16 11:11:05;;;;;;;3.50;2.00;;;11.20;99.90;;;;;;5037040;28;20814;-71
2023/10/16 11:13:37;;;;;;;3.20;1.97;;;11.20;99.90;;;;;;5036741;28;20423;-71
2023/10/16 11:16:07;;;;;;;5.70;2.10;;;11.20;99.90;;;;;;5035723;28;20504;-71
2023/10/16 11:18:37;;;;;;;3.30;1.80;;;11.30;99.90;;;;;;5035392;28;20438;-71
2023/10/16 11:21:06;;;;;;;3.90;1.60;;;11.30;99.90;;;;;;5035332;28;20466;-71
2023/10/16 11:23:40;;;;;;;3.33;1.60;;;11.30;99.90;;;;;;5036645;28;20808;-71
2023/10/16 11:26:13;;;;;;;6.20;1.97;;;11.40;99.90;;;;;;5035512;28;20467;-71
2023/10/16 11:28:48;;;;;;;5.93;2.43;;;11.40;99.90;;;;;;5037313;28;20901;-71
2023/10/16 11:31:18;;;;;;;3.47;1.30;;;11.50;99.90;;;;;;5035163;28;20493;-71
2023/10/16 11:34:01;;;;;;;6.00;1.80;;;11.40;99.90;;;;;;5036923;28;20419;-71
2023/10/16 11:36:33;;;;;;;3.37;1.60;;;11.50;99.90;;;;;;5036488;28;20954;-71
2023/10/16 11:39:19;;;;;;;3.00;1.00;;;11.50;99.90;;;;;;5034968;28;20435;-71
2023/10/16 11:41:49;;;;;;;2.77;1.43;;;11.60;99.90;;;;;;5036434;28;20461;-71
2023/10/16 11:44:19;;;;;;;4.37;2.03;;;11.60;99.90;;;;;;5036140;28;20443;-71
2023/10/16 11:46:52;;;;;;;2.73;1.40;;;11.60;99.90;;;;;;5036258;28;20462;-71
2023/10/16 11:49:29;;;;;;;2.27;1.13;;;11.60;99.90;;;;;;5036031;28;20433;-71
2023/10/16 11:52:08;;;;;;;2.10;1.00;;;11.60;99.90;;;;;;5034786;28;20438;-71
2023/10/16 11:54:40;;;;;;;4.67;1.40;;;11.70;99.90;;;;;;5036478;28;20429;-71
2023/10/16 11:57:13;;;;;;;3.97;1.40;;;11.70;99.90;;;;;;5036168;28;20458;-71
2023/10/16 11:59:42;;;;;;;4.90;1.50;;;11.60;99.90;;;;;;5034999;28;20511;-71
2023/10/16 12:02:12;;;;;;;2.40;0.80;;;11.60;99.90;;;;;;5034575;28;20438;-71
2023/10/16 12:04:41;;;;;;;1.57;0.50;;;11.60;99.90;;;;;;5035629;28;20436;-71
2023/10/16 12:07:12;;;;;;;1.63;0.77;;;11.60;99.90;;;;;;5034329;28;20467;-71
2023/10/16 12:09:47;;;;;;;1.60;0.80;;;11.50;99.90;;;;;;5036013;28;20469;-71
2023/10/16 12:12:20;;;;;;;1.40;0.80;;;11.50;99.90;;;;;;5034432;28;20439;-71
2023/10/16 12:14:49;;;;;;;2.40;1.13;;;11.50;99.90;;;;;;5035533;28;20459;-71
2023/10/16 12:17:19;;;;;;;1.57;0.70;;;11.40;99.90;;;;;;5034194;28;21011;-71
2023/10/16 12:19:48;;;;;;;2.00;0.90;;;11.40;99.90;;;;;;5035764;28;20419;-71
2023/10/16 12:22:20;;;;;;;2.10;0.90;;;11.40;99.90;;;;;;5035861;28;20466;-71
2023/10/16 12:24:50;;;;;;;2.90;1.40;;;11.30;99.90;;;;;;5035708;28;20897;-71
2023/10/16 12:27:18;;;;;;;3.70;2.50;;;11.40;99.90;;;;;;5033999;28;21006;-71
2023/10/16 12:29:46;;;;;;;5.73;2.27;;;11.40;99.90;;;;;;5035563;28;20435;-71
2023/10/16 12:32:15;;;;;;;2.53;1.50;;;11.40;99.90;;;;;;5035343;28;20972;-71
2023/10/16 12:34:43;;;;;;;2.70;1.50;;;11.40;99.90;;;;;;5035477;28;20485;-71
2023/10/16 12:37:11;;;;;;;2.57;1.57;;;11.40;99.90;;;;;;5035443;28;20455;-71
2023/10/16 12:39:46;;;;;;;3.80;1.90;;;11.40;99.90;;;;;;5035155;28;20443;-71
2023/10/16 12:42:18;;;;;;;2.67;1.83;;;11.40;99.90;;;;;;5035030;28;20959;-71
2023/10/16 12:44:47;;;;;;;2.43;1.67;;;11.50;99.90;;;;;;5035665;28;20465;-71
2023/10/16 12:47:15;;;;;;;2.93;2.10;;;11.40;99.90;;;;;;5035048;28;20561;-71
2023/10/16 12:50:04;;;;;;;4.50;2.00;;;11.50;99.90;;;;;;5035248;28;20432;-71
2023/10/16 12:52:33;;;;;;;5.97;2.63;;;11.50;99.90;;;;;;5034929;28;20849;-71
2023/10/16 12:55:02;;;;;;;2.50;1.43;;;11.60;99.90;;;;;;5035096;28;20534;-71
2023/10/16 12:57:31;;;;;;;3.30;1.40;;;11.60;99.90;;;;;;5034747;28;20553;-71
2023/10/16 12:59:59;;;;;;;3.17;1.30;;;11.60;99.90;;;;;;5035360;28;20446;-71
2023/10/16 13:02:27;;;;;;;3.30;1.00;;;11.60;99.90;;;;;;5034872;28;20808;-71
2023/10/16 13:05:01;;;;;;;2.00;1.13;;;11.70;99.90;;;;;;5034581;28;20529;-71
2023/10/16 13:07:29;;;;;;;2.43;1.30;;;11.70;99.90;;;;;;5034688;28;20470;-71
2023/10/16 13:10:14;;;;;;;1.60;0.80;;;11.80;99.90;;;;;;5035024;28;20453;-71
2023/10/16 13:12:44;;;;;;;1.80;0.87;;;11.80;99.90;;;;;;5032977;28;20446;-71
2023/10/16 13:15:15;;;;;;;2.07;0.70;;;11.80;99.90;;;;;;5035016;28;20485;-71
2023/10/16 13:17:45;;;;;;;3.27;0.90;;;11.90;99.90;;;;;;5034651;28;20454;-71
2023/10/16 13:20:17;;;;;;;4.30;0.90;;;11.90;99.90;;;;;;5033718;28;20534;-71
2023/10/16 13:22:49;;;;;;;3.27;0.80;;;12.00;99.90;;;;;;5034541;28;20830;-71
2023/10/16 13:25:17;;;;;;;2.27;1.00;;;12.00;99.90;;;;;;5034526;28;20909;-71
2023/10/16 13:27:47;;;;;;;2.50;0.90;;;12.00;99.90;;;;;;5034443;28;20455;-71
2023/10/16 13:30:18;;;;;;;1.47;0.70;;;12.10;99.90;;;;;;5032997;28;20447;-71
2023/10/16 13:32:47;;;;;;;3.87;1.17;;;12.10;99.90;;;;;;5033095;28;20515;-71
2023/10/16 13:35:17;;;;;;;2.70;1.00;;;12.10;99.90;;;;;;5032789;28;20431;-71
2023/10/16 13:37:46;;;;;;;2.07;0.70;;;12.10;99.90;;;;;;5033973;28;20538;-71
2023/10/16 13:40:20;;;;;;;1.93;0.97;;;12.10;99.90;;;;;;5033970;28;20441;-71
2023/10/16 13:42:51;;;;;;;1.70;0.73;;;12.20;99.90;;;;;;5034058;28;20538;-71
2023/10/16 13:45:21;;;;;;;2.20;0.80;;;12.20;99.90;;;;;;5033954;28;20415;-71
2023/10/16 13:47:51;;;;;;;5.00;1.30;;;12.20;99.90;;;;;;5033940;28;20838;-71
2023/10/16 13:50:24;;;;;;;3.70;1.10;;;12.20;99.90;;;;;;5034078;28;20431;-71
2023/10/16 13:52:53;;;;;;;2.77;1.00;;;12.20;99.90;;;;;;5033941;28;20423;-71
2023/10/16 13:55:22;;;;;;;2.80;1.07;;;12.20;99.90;;;;;;5034013;28;21008;-71
2023/10/16 13:57:54;;;;;;;1.80;1.20;;;12.30;99.90;;;;;;5033945;28;21038;-71
2023/10/16 14:00:47;;;;;;;2.53;1.20;;;12.30;99.90;;;;;;5032445;28;20431;-71
2023/10/16 14:03:17;;;;;;;3.43;1.20;;;12.30;99.90;;;;;;5033985;28;20422;-71
2023/10/16 14:05:48;;;;;;;2.80;1.20;;;12.30;99.90;;;;;;5033844;28;20800;-71
2023/10/16 14:08:17;;;;;;;7.50;1.10;;;12.30;99.90;;;;;;5033666;28;20419;-71
2023/10/16 14:10:52;;;;;;;2.30;1.37;;;12.30;99.90;;;;;;5032144;28;20458;-71
2023/10/16 14:13:26;;;;;;;3.50;1.80;;;12.30;99.90;;;;;;5032431;28;20438;-71
2023/10/16 14:15:57;;;;;;;2.90;1.50;;;12.20;99.90;;;;;;5033877;28;20468;-71
2023/10/16 14:18:25;;;;;;;2.63;1.27;;;12.20;99.90;;;;;;5033590;28;20442;-71
2023/10/16 14:20:56;;;;;;;3.83;1.40;;;12.20;99.90;;;;;;5032115;28;20486;-71
2023/10/16 14:23:28;;;;;;;2.67;1.00;;;12.20;99.90;;;;;;5033191;28;20450;-71
2023/10/16 14:25:58;;;;;;;2.60;1.20;;;12.20;99.90;;;;;;5032013;28;20574;-71
2023/10/16 14:28:32;;;;;;;2.60;0.97;;;12.20;99.90;;;;;;5032444;28;20446;-71
2023/10/16 14:31:02;;;;;;;2.20;1.27;;;12.20;99.90;;;;;;5034085;28;20420;-71
2023/10/16 14:33:32;;;;;;;2.90;1.43;;;12.20;99.90;;;;;;5033363;28;20960;-70
2023/10/16 14:36:01;;;;;;;4.97;1.40;;;12.10;99.90;;;;;;5033178;28;20458;-70
2023/10/16 14:38:30;;;;;;;2.47;1.37;;;12.10;99.90;;;;;;5033307;28;20527;-70
2023/10/16 14:41:04;;;;;;;4.03;1.33;;;12.10;99.90;;;;;;5033416;28;20438;-71
2023/10/16 14:43:35;;;;;;;2.40;1.00;;;12.10;99.90;;;;;;5033178;28;20469;-71
2023/10/16 14:46:04;;;;;;;4.00;1.70;;;12.10;99.90;;;;;;5033148;28;20985;-71
2023/10/16 14:48:33;;;;;;;3.40;1.20;;;12.10;99.90;;;;;;5031959;28;20822;-71